sensor_id;sensor_type;location;lat;lon;timestamp;P1;durP1;ratioP1;P2;durP2;ratioP2
2049;SDS011;8478;49.208;8.806;2023-04-06T00:01:09;7.10;;;6.60;;
2049;SDS011;8478;49.208;8.806;2023-04-06T00:03:35;7.53;;;6.83;;
2049;SDS011;8478;49.208;8.806;2023-04-06T00:06:01;7.30;;;6.80;;
2049;SDS011;8478;49.208;8.806;2023-04-06T00:08:27;6.90;;;6.40;;
2049;SDS011;8478;49.208;8.806;2023-04-06T00:10:53;7.53;;;7.03;;
2049;SDS011;8478;49.208;8.806;2023-04-06T00:13:19;6.90;;;6.40;;
2049;SDS011;8478;49.208;8.806;2023-04-06T00:15:45;6.77;;;6.20;;
2049;SDS011;8478;49.208;8.806;2023-04-06T00:18:10;8.17;;;7.47;;
2049;SDS011;8478;49.208;8.806;2023-04-06T00:20:36;8.63;;;7.93;;
2049;SDS011;8478;49.208;8.806;2023-04-06T00:23:02;7.33;;;6.67;;
2049;SDS011;8478;49.208;8.806;2023-04-06T00:25:28;7.00;;;6.50;;
2049;SDS011;8478;49.208;8.806;2023-04-06T00:27:54;7.27;;;6.77;;
2049;SDS011;8478;49.208;8.806;2023-04-06T00:30:19;7.00;;;6.50;;
2049;SDS011;8478;49.208;8.806;2023-04-06T00:32:45;6.90;;;6.40;;
2049;SDS011;8478;49.208;8.806;2023-04-06T00:35:11;8.33;;;7.60;;
2049;SDS011;8478;49.208;8.806;2023-04-06T00:37:37;7.93;;;7.23;;
2049;SDS011;8478;49.208;8.806;2023-04-06T00:40:02;8.83;;;8.03;;
2049;SDS011;8478;49.208;8.806;2023-04-06T00:42:28;8.13;;;7.53;;
2049;SDS011;8478;49.208;8.806;2023-04-06T00:44:55;7.53;;;7.03;;
2049;SDS011;8478;49.208;8.806;2023-04-06T00:47:22;7.57;;;7.07;;
2049;SDS011;8478;49.208;8.806;2023-04-06T00:49:50;7.37;;;6.87;;
2049;SDS011;8478;49.208;8.806;2023-04-06T00:52:16;8.73;;;7.93;;
2049;SDS011;8478;49.208;8.806;2023-04-06T00:54:42;8.20;;;7.60;;
2049;SDS011;8478;49.208;8.806;2023-04-06T00:57:08;7.67;;;7.10;;
2049;SDS011;8478;49.208;8.806;2023-04-06T00:59:34;8.60;;;8.00;;
2049;SDS011;8478;49.208;8.806;2023-04-06T01:01:59;7.70;;;6.90;;
2049;SDS011;8478;49.208;8.806;2023-04-06T01:04:26;7.70;;;7.10;;
2049;SDS011;8478;49.208;8.806;2023-04-06T01:06:52;7.90;;;7.30;;
2049;SDS011;8478;49.208;8.806;2023-04-06T01:09:18;8.33;;;7.73;;
2049;SDS011;8478;49.208;8.806;2023-04-06T01:11:43;8.07;;;7.40;;
2049;SDS011;8478;49.208;8.806;2023-04-06T01:14:09;8.10;;;7.50;;
2049;SDS011;8478;49.208;8.806;2023-04-06T01:16:36;8.30;;;7.53;;
2049;SDS011;8478;49.208;8.806;2023-04-06T01:19:07;7.67;;;7.07;;
2049;SDS011;8478;49.208;8.806;2023-04-06T01:21:34;9.40;;;8.70;;
2049;SDS011;8478;49.208;8.806;2023-04-06T01:24:01;9.77;;;8.97;;
2049;SDS011;8478;49.208;8.806;2023-04-06T01:26:26;9.10;;;8.30;;
2049;SDS011;8478;49.208;8.806;2023-04-06T01:28:54;9.97;;;9.17;;
2049;SDS011;8478;49.208;8.806;2023-04-06T01:31:20;9.57;;;8.77;;
2049;SDS011;8478;49.208;8.806;2023-04-06T01:33:47;9.70;;;8.80;;
2049;SDS011;8478;49.208;8.806;2023-04-06T01:36:12;9.93;;;8.93;;
2049;SDS011;8478;49.208;8.806;2023-04-06T01:38:38;9.87;;;8.97;;
2049;SDS011;8478;49.208;8.806;2023-04-06T01:41:04;9.17;;;8.47;;
2049;SDS011;8478;49.208;8.806;2023-04-06T01:43:30;8.50;;;7.90;;
2049;SDS011;8478;49.208;8.806;2023-04-06T01:45:56;8.60;;;7.87;;
2049;SDS011;8478;49.208;8.806;2023-04-06T01:48:21;8.67;;;8.07;;
2049;SDS011;8478;49.208;8.806;2023-04-06T01:50:47;8.97;;;8.13;;
2049;SDS011;8478;49.208;8.806;2023-04-06T01:53:13;8.90;;;8.20;;
2049;SDS011;8478;49.208;8.806;2023-04-06T01:55:39;8.80;;;8.00;;
2049;SDS011;8478;49.208;8.806;2023-04-06T01:58:05;8.87;;;8.20;;
2049;SDS011;8478;49.208;8.806;2023-04-06T02:00:30;9.47;;;8.60;;
2049;SDS011;8478;49.208;8.806;2023-04-06T02:02:56;9.40;;;8.60;;
2049;SDS011;8478;49.208;8.806;2023-04-06T02:05:22;10.10;;;9.20;;
2049;SDS011;8478;49.208;8.806;2023-04-06T02:07:48;9.67;;;8.93;;
2049;SDS011;8478;49.208;8.806;2023-04-06T02:10:14;9.30;;;8.60;;
2049;SDS011;8478;49.208;8.806;2023-04-06T02:12:40;9.80;;;9.00;;
2049;SDS011;8478;49.208;8.806;2023-04-06T02:15:06;9.63;;;8.70;;
2049;SDS011;8478;49.208;8.806;2023-04-06T02:17:32;9.00;;;8.30;;
2049;SDS011;8478;49.208;8.806;2023-04-06T02:19:58;10.10;;;9.33;;
2049;SDS011;8478;49.208;8.806;2023-04-06T02:22:23;10.33;;;8.57;;
2049;SDS011;8478;49.208;8.806;2023-04-06T02:24:49;8.40;;;7.80;;
2049;SDS011;8478;49.208;8.806;2023-04-06T02:27:15;9.20;;;8.50;;
2049;SDS011;8478;49.208;8.806;2023-04-06T02:29:41;10.07;;;9.37;;
2049;SDS011;8478;49.208;8.806;2023-04-06T02:32:06;9.57;;;8.77;;
2049;SDS011;8478;49.208;8.806;2023-04-06T02:34:32;9.40;;;8.70;;
2049;SDS011;8478;49.208;8.806;2023-04-06T02:36:58;9.43;;;8.73;;
2049;SDS011;8478;49.208;8.806;2023-04-06T02:39:24;8.40;;;7.70;;
2049;SDS011;8478;49.208;8.806;2023-04-06T02:41:50;8.93;;;8.13;;
2049;SDS011;8478;49.208;8.806;2023-04-06T02:44:15;8.60;;;7.90;;
2049;SDS011;8478;49.208;8.806;2023-04-06T02:46:41;9.57;;;8.77;;
2049;SDS011;8478;49.208;8.806;2023-04-06T02:49:07;8.70;;;8.00;;
2049;SDS011;8478;49.208;8.806;2023-04-06T02:51:32;8.37;;;7.77;;
2049;SDS011;8478;49.208;8.806;2023-04-06T02:53:58;9.10;;;8.40;;
2049;SDS011;8478;49.208;8.806;2023-04-06T02:56:24;10.10;;;9.30;;
2049;SDS011;8478;49.208;8.806;2023-04-06T02:58:51;10.07;;;9.40;;
2049;SDS011;8478;49.208;8.806;2023-04-06T03:01:17;9.67;;;8.90;;
2049;SDS011;8478;49.208;8.806;2023-04-06T03:03:42;9.80;;;8.90;;
2049;SDS011;8478;49.208;8.806;2023-04-06T03:06:08;9.40;;;8.60;;
2049;SDS011;8478;49.208;8.806;2023-04-06T03:08:34;10.43;;;9.53;;
2049;SDS011;8478;49.208;8.806;2023-04-06T03:11:00;11.00;;;10.20;;
2049;SDS011;8478;49.208;8.806;2023-04-06T03:13:26;10.43;;;9.43;;
2049;SDS011;8478;49.208;8.806;2023-04-06T03:15:51;9.30;;;8.70;;
2049;SDS011;8478;49.208;8.806;2023-04-06T03:18:20;10.70;;;9.80;;
2049;SDS011;8478;49.208;8.806;2023-04-06T03:20:50;10.70;;;9.70;;
2049;SDS011;8478;49.208;8.806;2023-04-06T03:23:18;10.57;;;9.77;;
2049;SDS011;8478;49.208;8.806;2023-04-06T03:25:45;10.93;;;10.03;;
2049;SDS011;8478;49.208;8.806;2023-04-06T03:28:11;10.50;;;9.60;;
2049;SDS011;8478;49.208;8.806;2023-04-06T03:30:37;11.03;;;10.17;;
2049;SDS011;8478;49.208;8.806;2023-04-06T03:33:03;10.73;;;9.93;;
2049;SDS011;8478;49.208;8.806;2023-04-06T03:35:29;10.17;;;9.30;;
2049;SDS011;8478;49.208;8.806;2023-04-06T03:37:54;10.13;;;9.37;;
2049;SDS011;8478;49.208;8.806;2023-04-06T03:40:20;9.90;;;9.10;;
2049;SDS011;8478;49.208;8.806;2023-04-06T03:42:46;11.53;;;10.60;;
2049;SDS011;8478;49.208;8.806;2023-04-06T03:45:11;13.70;;;12.50;;
2049;SDS011;8478;49.208;8.806;2023-04-06T03:47:40;12.43;;;11.53;;
2049;SDS011;8478;49.208;8.806;2023-04-06T03:50:06;13.00;;;11.97;;
2049;SDS011;8478;49.208;8.806;2023-04-06T03:52:32;13.93;;;12.80;;
2049;SDS011;8478;49.208;8.806;2023-04-06T03:54:57;14.73;;;13.60;;
2049;SDS011;8478;49.208;8.806;2023-04-06T03:57:23;14.20;;;13.00;;
2049;SDS011;8478;49.208;8.806;2023-04-06T03:59:49;12.70;;;11.80;;
2049;SDS011;8478;49.208;8.806;2023-04-06T04:02:14;14.10;;;13.00;;
2049;SDS011;8478;49.208;8.806;2023-04-06T04:04:40;14.03;;;12.90;;
2049;SDS011;8478;49.208;8.806;2023-04-06T04:07:06;17.10;;;15.53;;
2049;SDS011;8478;49.208;8.806;2023-04-06T04:09:32;14.87;;;13.63;;
2049;SDS011;8478;49.208;8.806;2023-04-06T04:11:57;14.03;;;12.63;;
2049;SDS011;8478;49.208;8.806;2023-04-06T04:14:23;15.53;;;14.20;;
2049;SDS011;8478;49.208;8.806;2023-04-06T04:16:49;14.73;;;13.43;;
2049;SDS011;8478;49.208;8.806;2023-04-06T04:19:14;14.23;;;13.03;;
2049;SDS011;8478;49.208;8.806;2023-04-06T04:21:43;16.40;;;15.00;;
2049;SDS011;8478;49.208;8.806;2023-04-06T04:24:11;15.83;;;14.43;;
2049;SDS011;8478;49.208;8.806;2023-04-06T04:26:37;16.00;;;14.40;;
2049;SDS011;8478;49.208;8.806;2023-04-06T04:29:04;17.30;;;15.40;;
2049;SDS011;8478;49.208;8.806;2023-04-06T04:31:30;14.47;;;13.27;;
2049;SDS011;8478;49.208;8.806;2023-04-06T04:33:55;15.17;;;13.83;;
2049;SDS011;8478;49.208;8.806;2023-04-06T04:36:21;14.97;;;13.47;;
2049;SDS011;8478;49.208;8.806;2023-04-06T04:38:48;14.50;;;13.30;;
2049;SDS011;8478;49.208;8.806;2023-04-06T04:41:13;14.23;;;13.03;;
2049;SDS011;8478;49.208;8.806;2023-04-06T04:43:39;13.60;;;12.47;;
2049;SDS011;8478;49.208;8.806;2023-04-06T04:46:05;16.00;;;14.70;;
2049;SDS011;8478;49.208;8.806;2023-04-06T04:48:31;16.30;;;13.47;;
2049;SDS011;8478;49.208;8.806;2023-04-06T04:50:57;16.53;;;15.00;;
2049;SDS011;8478;49.208;8.806;2023-04-06T04:53:23;14.10;;;12.80;;
2049;SDS011;8478;49.208;8.806;2023-04-06T04:55:48;15.33;;;14.03;;
2049;SDS011;8478;49.208;8.806;2023-04-06T04:58:14;15.20;;;13.80;;
2049;SDS011;8478;49.208;8.806;2023-04-06T05:00:44;15.10;;;13.80;;
2049;SDS011;8478;49.208;8.806;2023-04-06T05:03:20;15.70;;;14.20;;
2049;SDS011;8478;49.208;8.806;2023-04-06T05:05:48;15.10;;;13.70;;
2049;SDS011;8478;49.208;8.806;2023-04-06T05:08:13;16.07;;;14.60;;
2049;SDS011;8478;49.208;8.806;2023-04-06T05:10:40;16.80;;;15.30;;
2049;SDS011;8478;49.208;8.806;2023-04-06T05:13:06;15.50;;;14.30;;
2049;SDS011;8478;49.208;8.806;2023-04-06T05:15:32;15.70;;;14.23;;
2049;SDS011;8478;49.208;8.806;2023-04-06T05:18:03;15.07;;;13.80;;
2049;SDS011;8478;49.208;8.806;2023-04-06T05:20:29;16.57;;;14.87;;
2049;SDS011;8478;49.208;8.806;2023-04-06T05:22:55;16.27;;;14.67;;
2049;SDS011;8478;49.208;8.806;2023-04-06T05:25:21;13.90;;;12.70;;
2049;SDS011;8478;49.208;8.806;2023-04-06T05:27:47;13.57;;;12.47;;
2049;SDS011;8478;49.208;8.806;2023-04-06T05:30:13;14.13;;;12.93;;
2049;SDS011;8478;49.208;8.806;2023-04-06T05:32:39;13.00;;;11.87;;
2049;SDS011;8478;49.208;8.806;2023-04-06T05:35:05;14.33;;;13.00;;
2049;SDS011;8478;49.208;8.806;2023-04-06T05:37:31;13.57;;;12.37;;
2049;SDS011;8478;49.208;8.806;2023-04-06T05:39:57;12.63;;;11.43;;
2049;SDS011;8478;49.208;8.806;2023-04-06T05:42:22;13.00;;;11.70;;
2049;SDS011;8478;49.208;8.806;2023-04-06T05:44:48;12.10;;;11.20;;
2049;SDS011;8478;49.208;8.806;2023-04-06T05:47:14;12.23;;;11.03;;
2049;SDS011;8478;49.208;8.806;2023-04-06T05:49:41;11.97;;;11.07;;
2049;SDS011;8478;49.208;8.806;2023-04-06T05:52:07;12.40;;;11.50;;
2049;SDS011;8478;49.208;8.806;2023-04-06T05:54:34;11.97;;;10.93;;
2049;SDS011;8478;49.208;8.806;2023-04-06T05:57:01;11.90;;;10.80;;
2049;SDS011;8478;49.208;8.806;2023-04-06T05:59:29;11.50;;;10.40;;
2049;SDS011;8478;49.208;8.806;2023-04-06T06:01:55;12.27;;;11.27;;
2049;SDS011;8478;49.208;8.806;2023-04-06T06:04:21;11.17;;;10.27;;
2049;SDS011;8478;49.208;8.806;2023-04-06T06:06:47;10.43;;;9.53;;
2049;SDS011;8478;49.208;8.806;2023-04-06T06:09:12;11.27;;;10.37;;
2049;SDS011;8478;49.208;8.806;2023-04-06T06:11:38;11.53;;;10.53;;
2049;SDS011;8478;49.208;8.806;2023-04-06T06:14:04;11.20;;;10.27;;
2049;SDS011;8478;49.208;8.806;2023-04-06T06:16:30;12.70;;;11.57;;
2049;SDS011;8478;49.208;8.806;2023-04-06T06:18:56;13.00;;;11.80;;
2049;SDS011;8478;49.208;8.806;2023-04-06T06:21:21;11.87;;;10.90;;
2049;SDS011;8478;49.208;8.806;2023-04-06T06:23:47;13.00;;;11.90;;
2049;SDS011;8478;49.208;8.806;2023-04-06T06:26:14;13.00;;;12.00;;
2049;SDS011;8478;49.208;8.806;2023-04-06T06:28:40;12.23;;;11.33;;
2049;SDS011;8478;49.208;8.806;2023-04-06T06:31:06;11.90;;;10.80;;
2049;SDS011;8478;49.208;8.806;2023-04-06T06:33:32;12.87;;;11.63;;
2049;SDS011;8478;49.208;8.806;2023-04-06T06:35:57;12.10;;;11.10;;
2049;SDS011;8478;49.208;8.806;2023-04-06T06:38:23;12.80;;;11.80;;
2049;SDS011;8478;49.208;8.806;2023-04-06T06:40:49;12.77;;;11.77;;
2049;SDS011;8478;49.208;8.806;2023-04-06T06:43:15;13.73;;;12.53;;
2049;SDS011;8478;49.208;8.806;2023-04-06T06:45:41;13.20;;;12.17;;
2049;SDS011;8478;49.208;8.806;2023-04-06T06:48:07;11.87;;;10.87;;
2049;SDS011;8478;49.208;8.806;2023-04-06T06:50:32;13.10;;;12.00;;
2049;SDS011;8478;49.208;8.806;2023-04-06T06:52:58;12.70;;;11.80;;
2049;SDS011;8478;49.208;8.806;2023-04-06T06:55:24;12.73;;;11.73;;
2049;SDS011;8478;49.208;8.806;2023-04-06T06:57:51;13.20;;;12.10;;
2049;SDS011;8478;49.208;8.806;2023-04-06T07:00:18;13.00;;;11.90;;
2049;SDS011;8478;49.208;8.806;2023-04-06T07:02:46;12.63;;;11.53;;
2049;SDS011;8478;49.208;8.806;2023-04-06T07:05:15;14.47;;;13.20;;
2049;SDS011;8478;49.208;8.806;2023-04-06T07:07:41;13.27;;;12.07;;
2049;SDS011;8478;49.208;8.806;2023-04-06T07:10:07;13.40;;;12.27;;
2049;SDS011;8478;49.208;8.806;2023-04-06T07:12:33;14.87;;;13.40;;
2049;SDS011;8478;49.208;8.806;2023-04-06T07:15:00;15.00;;;13.70;;
2049;SDS011;8478;49.208;8.806;2023-04-06T07:17:26;15.00;;;13.80;;
2049;SDS011;8478;49.208;8.806;2023-04-06T07:19:51;16.60;;;15.07;;
2049;SDS011;8478;49.208;8.806;2023-04-06T07:22:17;15.87;;;14.57;;
2049;SDS011;8478;49.208;8.806;2023-04-06T07:24:43;15.17;;;13.87;;
2049;SDS011;8478;49.208;8.806;2023-04-06T07:27:09;16.17;;;14.77;;
2049;SDS011;8478;49.208;8.806;2023-04-06T07:29:34;16.77;;;15.47;;
2049;SDS011;8478;49.208;8.806;2023-04-06T07:32:00;15.33;;;13.93;;
2049;SDS011;8478;49.208;8.806;2023-04-06T07:34:26;16.63;;;15.13;;
2049;SDS011;8478;49.208;8.806;2023-04-06T07:36:51;15.30;;;13.90;;
2049;SDS011;8478;49.208;8.806;2023-04-06T07:39:19;16.13;;;14.73;;
2049;SDS011;8478;49.208;8.806;2023-04-06T07:41:44;16.33;;;14.10;;
2049;SDS011;8478;49.208;8.806;2023-04-06T07:44:10;15.20;;;13.90;;
2049;SDS011;8478;49.208;8.806;2023-04-06T07:46:36;14.67;;;13.20;;
2049;SDS011;8478;49.208;8.806;2023-04-06T07:49:02;14.60;;;13.30;;
2049;SDS011;8478;49.208;8.806;2023-04-06T07:51:27;14.57;;;13.37;;
2049;SDS011;8478;49.208;8.806;2023-04-06T07:53:53;13.43;;;12.33;;
2049;SDS011;8478;49.208;8.806;2023-04-06T07:56:19;13.13;;;12.00;;
2049;SDS011;8478;49.208;8.806;2023-04-06T07:58:46;12.43;;;11.50;;
2049;SDS011;8478;49.208;8.806;2023-04-06T08:01:12;13.40;;;12.03;;
2049;SDS011;8478;49.208;8.806;2023-04-06T08:03:38;11.57;;;10.73;;
2049;SDS011;8478;49.208;8.806;2023-04-06T08:06:04;11.63;;;10.73;;
2049;SDS011;8478;49.208;8.806;2023-04-06T08:08:30;11.97;;;10.97;;
2049;SDS011;8478;49.208;8.806;2023-04-06T08:10:56;11.60;;;10.70;;
2049;SDS011;8478;49.208;8.806;2023-04-06T08:13:22;11.60;;;10.60;;
2049;SDS011;8478;49.208;8.806;2023-04-06T08:15:48;11.17;;;10.23;;
2049;SDS011;8478;49.208;8.806;2023-04-06T08:18:13;12.73;;;11.50;;
2049;SDS011;8478;49.208;8.806;2023-04-06T08:20:39;12.30;;;11.30;;
2049;SDS011;8478;49.208;8.806;2023-04-06T08:23:05;11.60;;;10.50;;
2049;SDS011;8478;49.208;8.806;2023-04-06T08:25:35;11.80;;;10.80;;
2049;SDS011;8478;49.208;8.806;2023-04-06T08:28:01;12.23;;;11.20;;
2049;SDS011;8478;49.208;8.806;2023-04-06T08:30:28;11.57;;;10.67;;
2049;SDS011;8478;49.208;8.806;2023-04-06T08:32:54;12.97;;;11.87;;
2049;SDS011;8478;49.208;8.806;2023-04-06T08:35:19;11.40;;;10.50;;
2049;SDS011;8478;49.208;8.806;2023-04-06T08:37:45;12.80;;;11.80;;
2049;SDS011;8478;49.208;8.806;2023-04-06T08:40:11;12.77;;;11.43;;
2049;SDS011;8478;49.208;8.806;2023-04-06T08:42:40;13.43;;;12.23;;
2049;SDS011;8478;49.208;8.806;2023-04-06T08:45:11;11.90;;;11.00;;
2049;SDS011;8478;49.208;8.806;2023-04-06T08:47:38;11.57;;;10.53;;
2049;SDS011;8478;49.208;8.806;2023-04-06T08:50:05;12.30;;;11.20;;
2049;SDS011;8478;49.208;8.806;2023-04-06T08:52:32;13.37;;;12.17;;
2049;SDS011;8478;49.208;8.806;2023-04-06T08:55:01;12.00;;;11.00;;
2049;SDS011;8478;49.208;8.806;2023-04-06T08:57:27;11.20;;;10.17;;
2049;SDS011;8478;49.208;8.806;2023-04-06T08:59:54;10.80;;;9.90;;
2049;SDS011;8478;49.208;8.806;2023-04-06T09:02:21;10.60;;;9.70;;
2049;SDS011;8478;49.208;8.806;2023-04-06T09:04:52;11.60;;;10.40;;
2049;SDS011;8478;49.208;8.806;2023-04-06T09:07:19;11.40;;;10.30;;
2049;SDS011;8478;49.208;8.806;2023-04-06T09:09:45;11.40;;;10.30;;
2049;SDS011;8478;49.208;8.806;2023-04-06T09:12:27;12.23;;;11.07;;
2049;SDS011;8478;49.208;8.806;2023-04-06T09:14:54;10.53;;;9.70;;
2049;SDS011;8478;49.208;8.806;2023-04-06T09:17:27;10.67;;;9.87;;
2049;SDS011;8478;49.208;8.806;2023-04-06T09:19:55;11.17;;;10.30;;
2049;SDS011;8478;49.208;8.806;2023-04-06T09:22:21;9.87;;;9.00;;
2049;SDS011;8478;49.208;8.806;2023-04-06T09:24:50;11.67;;;10.50;;
2049;SDS011;8478;49.208;8.806;2023-04-06T09:27:17;9.90;;;9.00;;
2049;SDS011;8478;49.208;8.806;2023-04-06T09:30:02;12.27;;;10.27;;
2049;SDS011;8478;49.208;8.806;2023-04-06T09:32:31;10.57;;;9.57;;
2049;SDS011;8478;49.208;8.806;2023-04-06T09:35:07;10.23;;;9.43;;
2049;SDS011;8478;49.208;8.806;2023-04-06T09:37:33;10.90;;;10.07;;
2049;SDS011;8478;49.208;8.806;2023-04-06T09:40:05;10.03;;;9.23;;
2049;SDS011;8478;49.208;8.806;2023-04-06T09:42:33;9.80;;;9.00;;
2049;SDS011;8478;49.208;8.806;2023-04-06T09:45:00;10.93;;;9.93;;
2049;SDS011;8478;49.208;8.806;2023-04-06T09:47:26;8.93;;;8.30;;
2049;SDS011;8478;49.208;8.806;2023-04-06T09:49:55;10.17;;;9.27;;
2049;SDS011;8478;49.208;8.806;2023-04-06T09:55:12;9.40;;;8.70;;
2049;SDS011;8478;49.208;8.806;2023-04-06T09:57:52;9.73;;;9.03;;
2049;SDS011;8478;49.208;8.806;2023-04-06T10:00:23;9.87;;;8.97;;
2049;SDS011;8478;49.208;8.806;2023-04-06T10:05:52;21.97;;;10.20;;
2049;SDS011;8478;49.208;8.806;2023-04-06T10:08:24;11.30;;;9.20;;
2049;SDS011;8478;49.208;8.806;2023-04-06T10:10:53;12.13;;;10.23;;
2049;SDS011;8478;49.208;8.806;2023-04-06T10:13:20;9.30;;;8.30;;
2049;SDS011;8478;49.208;8.806;2023-04-06T10:15:46;11.23;;;10.13;;
2049;SDS011;8478;49.208;8.806;2023-04-06T10:18:12;11.53;;;10.40;;
2049;SDS011;8478;49.208;8.806;2023-04-06T10:20:43;12.37;;;11.07;;
2049;SDS011;8478;49.208;8.806;2023-04-06T10:23:34;11.20;;;10.33;;
2049;SDS011;8478;49.208;8.806;2023-04-06T10:26:13;11.77;;;10.67;;
2049;SDS011;8478;49.208;8.806;2023-04-06T10:28:42;11.33;;;10.27;;
2049;SDS011;8478;49.208;8.806;2023-04-06T10:31:08;10.90;;;10.00;;
2049;SDS011;8478;49.208;8.806;2023-04-06T10:33:34;10.83;;;9.90;;
2049;SDS011;8478;49.208;8.806;2023-04-06T10:38:59;12.10;;;9.30;;
2049;SDS011;8478;49.208;8.806;2023-04-06T10:41:33;9.60;;;8.80;;
2049;SDS011;8478;49.208;8.806;2023-04-06T10:44:01;9.50;;;8.80;;
2049;SDS011;8478;49.208;8.806;2023-04-06T10:46:27;9.00;;;8.20;;
2049;SDS011;8478;49.208;8.806;2023-04-06T10:48:55;9.40;;;8.50;;
2049;SDS011;8478;49.208;8.806;2023-04-06T10:51:25;9.30;;;8.50;;
2049;SDS011;8478;49.208;8.806;2023-04-06T10:53:52;8.40;;;7.70;;
2049;SDS011;8478;49.208;8.806;2023-04-06T10:56:21;9.00;;;7.77;;
2049;SDS011;8478;49.208;8.806;2023-04-06T10:58:49;9.47;;;8.30;;
2049;SDS011;8478;49.208;8.806;2023-04-06T11:01:20;13.03;;;9.43;;
2049;SDS011;8478;49.208;8.806;2023-04-06T11:03:48;9.67;;;8.73;;
2049;SDS011;8478;49.208;8.806;2023-04-06T11:06:32;9.50;;;8.70;;
2049;SDS011;8478;49.208;8.806;2023-04-06T11:08:58;9.87;;;8.87;;
2049;SDS011;8478;49.208;8.806;2023-04-06T11:11:25;10.67;;;9.77;;
2049;SDS011;8478;49.208;8.806;2023-04-06T11:13:52;12.43;;;11.30;;
2049;SDS011;8478;49.208;8.806;2023-04-06T11:16:40;10.67;;;9.63;;
2049;SDS011;8478;49.208;8.806;2023-04-06T11:19:06;11.03;;;9.90;;
2049;SDS011;8478;49.208;8.806;2023-04-06T11:21:36;12.60;;;10.90;;
2049;SDS011;8478;49.208;8.806;2023-04-06T11:24:07;10.73;;;9.57;;
2049;SDS011;8478;49.208;8.806;2023-04-06T11:26:38;15.03;;;10.30;;
2049;SDS011;8478;49.208;8.806;2023-04-06T11:29:14;12.70;;;10.10;;
2049;SDS011;8478;49.208;8.806;2023-04-06T11:31:51;10.03;;;9.10;;
2049;SDS011;8478;49.208;8.806;2023-04-06T11:34:19;9.27;;;8.53;;
2049;SDS011;8478;49.208;8.806;2023-04-06T11:36:48;9.17;;;8.47;;
2049;SDS011;8478;49.208;8.806;2023-04-06T11:39:18;9.37;;;8.37;;
2049;SDS011;8478;49.208;8.806;2023-04-06T11:41:49;9.17;;;8.27;;
2049;SDS011;8478;49.208;8.806;2023-04-06T11:44:26;9.00;;;8.30;;
2049;SDS011;8478;49.208;8.806;2023-04-06T11:47:00;9.70;;;8.90;;
2049;SDS011;8478;49.208;8.806;2023-04-06T11:49:27;10.60;;;9.47;;
2049;SDS011;8478;49.208;8.806;2023-04-06T11:51:54;8.87;;;8.17;;
2049;SDS011;8478;49.208;8.806;2023-04-06T11:54:37;9.70;;;8.70;;
2049;SDS011;8478;49.208;8.806;2023-04-06T11:57:03;10.17;;;9.40;;
2049;SDS011;8478;49.208;8.806;2023-04-06T11:59:30;9.73;;;8.50;;
2049;SDS011;8478;49.208;8.806;2023-04-06T12:01:56;8.67;;;7.97;;
2049;SDS011;8478;49.208;8.806;2023-04-06T12:04:22;9.70;;;8.80;;
2049;SDS011;8478;49.208;8.806;2023-04-06T12:06:48;10.87;;;9.77;;
2049;SDS011;8478;49.208;8.806;2023-04-06T12:09:15;10.67;;;9.03;;
2049;SDS011;8478;49.208;8.806;2023-04-06T12:11:42;8.80;;;8.00;;
2049;SDS011;8478;49.208;8.806;2023-04-06T12:14:08;11.00;;;10.03;;
2049;SDS011;8478;49.208;8.806;2023-04-06T12:16:34;9.67;;;8.87;;
2049;SDS011;8478;49.208;8.806;2023-04-06T12:19:00;9.40;;;8.60;;
2049;SDS011;8478;49.208;8.806;2023-04-06T12:21:27;11.03;;;8.87;;
2049;SDS011;8478;49.208;8.806;2023-04-06T12:23:53;9.63;;;8.60;;
2049;SDS011;8478;49.208;8.806;2023-04-06T12:26:20;8.40;;;7.70;;
2049;SDS011;8478;49.208;8.806;2023-04-06T12:28:46;9.33;;;8.47;;
2049;SDS011;8478;49.208;8.806;2023-04-06T12:31:18;9.40;;;8.17;;
2049;SDS011;8478;49.208;8.806;2023-04-06T12:33:51;8.97;;;8.17;;
2049;SDS011;8478;49.208;8.806;2023-04-06T12:36:18;8.70;;;7.90;;
2049;SDS011;8478;49.208;8.806;2023-04-06T12:38:46;7.73;;;7.03;;
2049;SDS011;8478;49.208;8.806;2023-04-06T12:41:13;8.90;;;8.10;;
2049;SDS011;8478;49.208;8.806;2023-04-06T12:43:40;8.90;;;8.00;;
2049;SDS011;8478;49.208;8.806;2023-04-06T12:46:06;9.80;;;8.00;;
2049;SDS011;8478;49.208;8.806;2023-04-06T12:48:32;9.80;;;8.60;;
2049;SDS011;8478;49.208;8.806;2023-04-06T12:50:59;9.13;;;8.23;;
2049;SDS011;8478;49.208;8.806;2023-04-06T12:53:26;7.67;;;7.10;;
2049;SDS011;8478;49.208;8.806;2023-04-06T12:55:53;8.33;;;7.63;;
2049;SDS011;8478;49.208;8.806;2023-04-06T12:58:20;9.03;;;8.23;;
2049;SDS011;8478;49.208;8.806;2023-04-06T13:00:47;8.67;;;7.97;;
2049;SDS011;8478;49.208;8.806;2023-04-06T13:03:14;8.20;;;6.93;;
2049;SDS011;8478;49.208;8.806;2023-04-06T13:05:46;7.83;;;7.23;;
2049;SDS011;8478;49.208;8.806;2023-04-06T13:08:12;8.07;;;7.37;;
2049;SDS011;8478;49.208;8.806;2023-04-06T13:10:48;7.73;;;7.13;;
2049;SDS011;8478;49.208;8.806;2023-04-06T13:13:21;7.80;;;7.10;;
2049;SDS011;8478;49.208;8.806;2023-04-06T13:15:51;9.50;;;8.60;;
2049;SDS011;8478;49.208;8.806;2023-04-06T13:18:17;11.30;;;9.27;;
2049;SDS011;8478;49.208;8.806;2023-04-06T13:20:43;12.40;;;7.80;;
2049;SDS011;8478;49.208;8.806;2023-04-06T13:23:09;8.23;;;7.43;;
2049;SDS011;8478;49.208;8.806;2023-04-06T13:25:35;9.13;;;8.33;;
2049;SDS011;8478;49.208;8.806;2023-04-06T13:28:01;8.63;;;7.83;;
2049;SDS011;8478;49.208;8.806;2023-04-06T13:30:27;10.80;;;8.53;;
2049;SDS011;8478;49.208;8.806;2023-04-06T13:32:53;12.53;;;8.57;;
2049;SDS011;8478;49.208;8.806;2023-04-06T13:35:18;9.30;;;8.30;;
2049;SDS011;8478;49.208;8.806;2023-04-06T13:37:44;10.30;;;8.33;;
2049;SDS011;8478;49.208;8.806;2023-04-06T13:40:10;7.57;;;6.70;;
2049;SDS011;8478;49.208;8.806;2023-04-06T13:42:36;7.93;;;7.20;;
2049;SDS011;8478;49.208;8.806;2023-04-06T13:45:05;7.97;;;7.27;;
2049;SDS011;8478;49.208;8.806;2023-04-06T13:47:31;7.57;;;6.90;;
2049;SDS011;8478;49.208;8.806;2023-04-06T13:49:57;8.60;;;7.77;;
2049;SDS011;8478;49.208;8.806;2023-04-06T13:52:23;7.63;;;6.93;;
2049;SDS011;8478;49.208;8.806;2023-04-06T13:54:49;7.70;;;7.20;;
2049;SDS011;8478;49.208;8.806;2023-04-06T13:57:15;10.00;;;7.50;;
2049;SDS011;8478;49.208;8.806;2023-04-06T13:59:40;8.70;;;7.43;;
2049;SDS011;8478;49.208;8.806;2023-04-06T14:02:07;8.00;;;7.30;;
2049;SDS011;8478;49.208;8.806;2023-04-06T14:04:34;7.90;;;7.20;;
2049;SDS011;8478;49.208;8.806;2023-04-06T14:07:00;8.23;;;7.63;;
2049;SDS011;8478;49.208;8.806;2023-04-06T14:09:27;9.17;;;8.37;;
2049;SDS011;8478;49.208;8.806;2023-04-06T14:11:54;7.63;;;7.03;;
2049;SDS011;8478;49.208;8.806;2023-04-06T14:14:20;8.93;;;8.03;;
2049;SDS011;8478;49.208;8.806;2023-04-06T14:16:46;7.40;;;6.70;;
2049;SDS011;8478;49.208;8.806;2023-04-06T14:19:13;7.77;;;7.10;;
2049;SDS011;8478;49.208;8.806;2023-04-06T14:21:42;8.27;;;7.57;;
2049;SDS011;8478;49.208;8.806;2023-04-06T14:24:09;8.00;;;7.30;;
2049;SDS011;8478;49.208;8.806;2023-04-06T14:26:36;7.03;;;6.50;;
2049;SDS011;8478;49.208;8.806;2023-04-06T14:29:02;7.27;;;6.67;;
2049;SDS011;8478;49.208;8.806;2023-04-06T14:31:29;7.33;;;6.73;;
2049;SDS011;8478;49.208;8.806;2023-04-06T14:33:55;6.97;;;6.47;;
2049;SDS011;8478;49.208;8.806;2023-04-06T14:36:20;6.97;;;6.37;;
2049;SDS011;8478;49.208;8.806;2023-04-06T14:38:46;7.73;;;7.20;;
2049;SDS011;8478;49.208;8.806;2023-04-06T14:41:15;7.23;;;6.70;;
2049;SDS011;8478;49.208;8.806;2023-04-06T14:43:42;6.67;;;6.23;;
2049;SDS011;8478;49.208;8.806;2023-04-06T14:46:08;8.03;;;7.33;;
2049;SDS011;8478;49.208;8.806;2023-04-06T14:48:34;6.90;;;6.37;;
2049;SDS011;8478;49.208;8.806;2023-04-06T14:51:01;8.40;;;7.60;;
2049;SDS011;8478;49.208;8.806;2023-04-06T14:53:27;8.00;;;7.20;;
2049;SDS011;8478;49.208;8.806;2023-04-06T14:55:53;7.30;;;6.60;;
2049;SDS011;8478;49.208;8.806;2023-04-06T14:58:19;8.03;;;7.43;;
2049;SDS011;8478;49.208;8.806;2023-04-06T15:00:46;7.23;;;6.63;;
2049;SDS011;8478;49.208;8.806;2023-04-06T15:03:12;7.40;;;6.70;;
2049;SDS011;8478;49.208;8.806;2023-04-06T15:05:38;6.57;;;6.07;;
2049;SDS011;8478;49.208;8.806;2023-04-06T15:08:04;6.70;;;6.20;;
2049;SDS011;8478;49.208;8.806;2023-04-06T15:10:33;7.47;;;6.90;;